Thunderstorms From: 24-06-2019 00:00 Until: 22:59 warning for: Thunderstorms Level: Yellow info button
Heavy rain and thunderstorms may lead to flooding and disruption to travel.What to expect There is a small chance that homes and businesses could be flooded quickly, with damage to some buildings from floodwater, lightning strikes, hail or strong winds There is a small chance of fast flowing or deep floodwater causing danger to life Where flooding or lightning strikes occur, there is a chance of delays and some cancellations to train and bus services Spray and sudden flooding could lead to difficult driving conditions and some road closures There is a slight chance that power cuts could occur and other services to some homes and businesses could be lost 

Nearby METAR Reports

 

EGNT - Newcastle, United Kingdom
Distance from station: NNE 1mi, 2km
Updated: 24/06/2019 22:20
Mostly cloudy
Mostly cloudy
 Wind from calm
Wind: Calm
Temperature: 14°C
Dew Point: 14°C
Humidity: 100%
Barometer: 1019 hPa
Clouds: Mostly cloudy
Visibility: 4 miles , 6 km
Cloud details: Mostly cloudy 122 m
2019/06/24 21:20 EGNT 242120Z 00000KT 6000 BKN004 14/14 Q1019
EGQM - Boulmer, United Kingdom
Distance from station: N 29mi, 47km
Updated: 24/06/2019 21:50
Mist, Overcast
Mist, Overcast
 Wind from varies
Wind: varies 0 mph , 0 km/h
Temperature: 13°C
Dew Point: 13°C
Humidity: 100%
Barometer: 1019 hPa
Summary: Mist
Clouds: Overcast
Visibility: 1 mile , 2 km
Cloud details: Overcast 30 m
2019/06/24 20:50 EGQM 242050Z AUTO /////KT 1500 BR OVC001/// 13/13 Q1019
 
EGOM - Spadeadam, United Kingdom
Distance from station: W 34mi, 54km
Updated: 24/06/2019 21:50
Mostly cloudy
Mostly cloudy
 Wind from NE
Wind: NE 6 mph , 9 km/h
Temperature: 14°C
Dew Point: 14°C
Humidity: 100%
Barometer: 1019 hPa
Clouds: Mostly cloudy
Visibility: 6 miles , 10 km
Cloud details: Mostly cloudy 91 m
Mostly cloudy 274 m
2019/06/24 20:50 EGOM 242050Z AUTO 04005KT 9999 BKN003/// BKN009/// 14/14 Q1019
EGNV - Tees-Side, United Kingdom
Distance from station: SSE 35mi, 57km
Updated: 24/06/2019 21:50
Mostly cloudy
Mostly cloudy
 Wind from NE
Wind: NE 6 mph , 9 km/h
Temperature: 14°C
Dew Point: 13°C
Humidity: 94%
Barometer: 1019 hPa
Clouds: Mostly cloudy
Visibility: 4 miles , 6 km
Cloud details: Mostly cloudy 152 m
2019/06/24 20:50 EGNV 242050Z 04005KT 6000 BKN005 14/13 Q1019
 
EGNC - Carlisle, United Kingdom
Distance from station: W 45mi, 72km
Updated: 20/06/2019 14:50
NOT Current
Nearby showers, Partly cloudy
Nearby showers, Partly cloudy
 Wind from W
Wind: W 16 mph , 26 km/h
Temperature: 16°C
Dew Point: 8°C
Humidity: 59%
Barometer: 1009 hPa
Summary: Nearby Showers
Clouds: Partly cloudy
Visibility: 6 miles , 10 km
Cloud details: Partly cloudy 1067 m
2019/06/20 13:50 EGNC 201350Z 26014KT 230V300 9999 VCSH SCT035TCU 16/08 Q1009
EGXE - Leeming Raf, United Kingdom
Distance from station: S 50mi, 81km
Updated: 24/06/2019 21:50
Haze, Mostly cloudy
Haze, Mostly cloudy
 Wind from N
Wind: N 7 mph , 11 km/h
Temperature: 15°C
Dew Point: 14°C
Humidity: 94%
Barometer: 1018 hPa
Summary: Haze
Clouds: Mostly cloudy
Visibility: 4 miles , 6 km
Cloud details: Few Clouds 152 m
Mostly cloudy 396 m
2019/06/24 20:50 EGXE 242050Z AUTO 01006KT 6000 HZ FEW005/// BKN013/// 15/14 Q1018
 
EGXZ - Topcliffe Raf, United Kingdom
Distance from station: SSE 57mi, 91km
Updated: 24/06/2019 21:50
Mist, Partly cloudy
Mist, Partly cloudy
 Wind from NNW
Wind: NNW 9 mph , 15 km/h
Temperature: 15°C
Dew Point: 14°C
Humidity: 94%
Barometer: 1018 hPa
Summary: Mist
Clouds: Partly cloudy
Visibility: 4 miles , 6 km
Cloud details: Partly cloudy 6706 m
2019/06/24 20:50 EGXZ 242050Z AUTO 33008KT 6000 BR SCT220/// 15/14 Q1018
EGXU - Linton-On-Ouse R, United Kingdom
Distance from station: SSE 68mi, 110km
Updated: 24/06/2019 21:50
Overcast
Overcast
 Wind from NNW
Wind: NNW 5 mph , 7 km/h
Temperature: 17°C
Dew Point: 16°C
Humidity: 94%
Barometer: 1018 hPa
Clouds: Overcast
Visibility: 5 miles , 8 km
Cloud details: Overcast 335 m
2019/06/24 20:50 EGXU 242050Z AUTO 33004KT 8000 // OVC011/// 17/16 Q1018
 
EGNM - Leeds And Bradfo, United Kingdom
Distance from station: S 78mi, 126km
Updated: 24/06/2019 22:20
Mist, Mostly cloudy
Mist, Mostly cloudy
 Wind from NNE
Wind: NNE 7 mph , 11 km/h
Temperature: 17°C
Dew Point: 16°C
Humidity: 94%
Barometer: 1019 hPa
Summary: Mist
Clouds: Mostly cloudy
Visibility: 1 mile , 2 km
Cloud details: Partly cloudy 61 m
Mostly cloudy 122 m
2019/06/24 21:20 EGNM 242120Z 02006KT 350V060 2200 BR SCT002 BKN004 17/16 Q1019
EGPH - Edinburgh Airpor, United Kingdom
Distance from station: NW 92mi, 148km
Updated: 24/06/2019 22:20
Overcast
Overcast
 Wind from E
Wind: E 5 mph , 7 km/h
Temperature: 14°C
Dew Point: 13°C
Humidity: 94%
Barometer: 1020 hPa
Clouds: Overcast
Visibility: 6 miles , 10 km
Cloud details: Few Clouds 244 m
Partly cloudy 396 m
Overcast 579 m
2019/06/24 21:20 EGPH 242120Z 08004KT 010V140 9999 FEW008 SCT013 OVC019 14/13 Q1020
 
EGXV - Leconfield (aut), United Kingdom
Distance from station: SE 93mi, 150km
Updated: 24/06/2019 21:50
Mist, Mostly cloudy
Mist, Mostly cloudy
 Wind from ESE
Wind: ESE 1 mph , 2 km/h
Temperature: 16°C
Dew Point: 15°C
Humidity: 94%
Barometer: 1018 hPa
Summary: Mist
Clouds: Mostly cloudy
Visibility: 1 mile , 1 km
Cloud details: Mostly cloudy 213 m
Mostly cloudy 488 m
2019/06/24 20:50 EGXV 242050Z AUTO 11001KT 1300 BR BKN007/// BKN016/// 16/15 Q1018
EGNO - Wharton, United Kingdom
Distance from station: SSW 99mi, 159km
Updated: 24/06/2019 18:20
NOT Current
Partly cloudy
Partly cloudy
 Wind from W
Wind: W 6 mph , 9 km/h
Temperature: 21°C
Dew Point: 17°C
Humidity: 78%
Barometer: 1016 hPa
Clouds: Partly cloudy
Visibility: 6 miles , 9 km
Cloud details: Partly cloudy 610 m
2019/06/24 17:20 EGNO 241720Z 27005KT 230V320 9000 SCT020 21/17 Q1016
 
EGNH - Blackpool Airpor, United Kingdom
Distance from station: SSW 100mi, 161km
Updated: 24/06/2019 20:50
NOT Current
Clear
Clear
 Wind from WNW
Wind: WNW 7 mph , 11 km/h
Temperature: 18°C
Dew Point: 15°C
Humidity: 83%
Barometer: 1018 hPa
Summary: Clear
Visibility: greater than 7 miles , 10 km
2019/06/24 19:50 EGNH 241950Z 29006KT CAVOK 18/15 Q1018